sensor_id;sensor_type;location;lat;lon;timestamp;P1;durP1;ratioP1;P2;durP2;ratioP2
2021;SDS011;1015;49.756;6.994;2022-12-18T00:02:21;7.70;;;3.70;;
2021;SDS011;1015;49.756;6.994;2022-12-18T00:04:48;4.20;;;2.50;;
2021;SDS011;1015;49.756;6.994;2022-12-18T00:07:15;5.50;;;3.03;;
2021;SDS011;1015;49.756;6.994;2022-12-18T00:09:42;4.60;;;2.93;;
2021;SDS011;1015;49.756;6.994;2022-12-18T00:12:09;4.00;;;2.83;;
2021;SDS011;1015;49.756;6.994;2022-12-18T00:14:37;4.03;;;3.00;;
2021;SDS011;1015;49.756;6.994;2022-12-18T00:17:05;5.43;;;2.70;;
2021;SDS011;1015;49.756;6.994;2022-12-18T00:19:33;3.60;;;2.60;;
2021;SDS011;1015;49.756;6.994;2022-12-18T00:22:00;3.10;;;2.23;;
2021;SDS011;1015;49.756;6.994;2022-12-18T00:24:27;4.43;;;2.63;;
2021;SDS011;1015;49.756;6.994;2022-12-18T00:26:54;4.10;;;2.83;;
2021;SDS011;1015;49.756;6.994;2022-12-18T00:29:21;5.10;;;3.47;;
2021;SDS011;1015;49.756;6.994;2022-12-18T00:31:49;5.83;;;3.23;;
2021;SDS011;1015;49.756;6.994;2022-12-18T00:34:17;4.40;;;2.70;;
2021;SDS011;1015;49.756;6.994;2022-12-18T00:36:46;3.37;;;2.50;;
2021;SDS011;1015;49.756;6.994;2022-12-18T00:39:14;3.93;;;2.60;;
2021;SDS011;1015;49.756;6.994;2022-12-18T00:41:41;4.40;;;2.73;;
2021;SDS011;1015;49.756;6.994;2022-12-18T00:44:26;3.13;;;2.40;;
2021;SDS011;1015;49.756;6.994;2022-12-18T00:46:53;2.07;;;1.80;;
2021;SDS011;1015;49.756;6.994;2022-12-18T00:49:22;2.80;;;2.20;;
2021;SDS011;1015;49.756;6.994;2022-12-18T00:51:49;3.40;;;2.33;;
2021;SDS011;1015;49.756;6.994;2022-12-18T00:54:17;2.43;;;1.80;;
2021;SDS011;1015;49.756;6.994;2022-12-18T00:56:44;3.23;;;2.40;;
2021;SDS011;1015;49.756;6.994;2022-12-18T00:59:11;3.40;;;2.13;;
2021;SDS011;1015;49.756;6.994;2022-12-18T01:01:39;2.10;;;1.90;;
2021;SDS011;1015;49.756;6.994;2022-12-18T01:04:06;3.53;;;2.40;;
2021;SDS011;1015;49.756;6.994;2022-12-18T01:06:34;2.47;;;1.87;;
2021;SDS011;1015;49.756;6.994;2022-12-18T01:09:02;2.90;;;2.00;;
2021;SDS011;1015;49.756;6.994;2022-12-18T01:11:30;2.53;;;2.07;;
2021;SDS011;1015;49.756;6.994;2022-12-18T01:13:57;2.73;;;1.80;;
2021;SDS011;1015;49.756;6.994;2022-12-18T01:16:24;9.70;;;5.73;;
2021;SDS011;1015;49.756;6.994;2022-12-18T01:18:52;3.20;;;1.93;;
2021;SDS011;1015;49.756;6.994;2022-12-18T01:21:20;2.83;;;2.10;;
2021;SDS011;1015;49.756;6.994;2022-12-18T01:23:50;2.57;;;1.80;;
2021;SDS011;1015;49.756;6.994;2022-12-18T01:26:18;2.83;;;1.97;;
2021;SDS011;1015;49.756;6.994;2022-12-18T01:28:45;2.70;;;1.97;;
2021;SDS011;1015;49.756;6.994;2022-12-18T01:31:13;4.27;;;2.30;;
2021;SDS011;1015;49.756;6.994;2022-12-18T01:33:41;3.07;;;2.30;;
2021;SDS011;1015;49.756;6.994;2022-12-18T01:36:13;2.37;;;1.70;;
2021;SDS011;1015;49.756;6.994;2022-12-18T01:38:41;1.73;;;1.50;;
2021;SDS011;1015;49.756;6.994;2022-12-18T01:41:09;2.40;;;1.60;;
2021;SDS011;1015;49.756;6.994;2022-12-18T01:43:41;2.30;;;1.70;;
2021;SDS011;1015;49.756;6.994;2022-12-18T01:46:09;4.10;;;1.80;;
2021;SDS011;1015;49.756;6.994;2022-12-18T01:48:36;2.70;;;1.63;;
2021;SDS011;1015;49.756;6.994;2022-12-18T01:51:03;3.00;;;1.90;;
2021;SDS011;1015;49.756;6.994;2022-12-18T01:53:31;2.40;;;1.93;;
2021;SDS011;1015;49.756;6.994;2022-12-18T01:55:58;5.83;;;3.50;;
2021;SDS011;1015;49.756;6.994;2022-12-18T01:58:30;3.93;;;2.67;;
2021;SDS011;1015;49.756;6.994;2022-12-18T02:00:59;3.53;;;2.60;;
2021;SDS011;1015;49.756;6.994;2022-12-18T02:03:27;2.30;;;1.87;;
2021;SDS011;1015;49.756;6.994;2022-12-18T02:05:57;4.60;;;2.43;;
2021;SDS011;1015;49.756;6.994;2022-12-18T02:08:27;2.20;;;1.90;;
2021;SDS011;1015;49.756;6.994;2022-12-18T02:11:00;2.90;;;1.73;;
2021;SDS011;1015;49.756;6.994;2022-12-18T02:13:32;2.63;;;1.97;;
2021;SDS011;1015;49.756;6.994;2022-12-18T02:16:04;3.10;;;2.20;;
2021;SDS011;1015;49.756;6.994;2022-12-18T02:18:35;2.50;;;2.13;;
2021;SDS011;1015;49.756;6.994;2022-12-18T02:21:07;2.77;;;2.17;;
2021;SDS011;1015;49.756;6.994;2022-12-18T02:23:42;2.77;;;1.97;;
2021;SDS011;1015;49.756;6.994;2022-12-18T02:26:15;4.03;;;3.03;;
2021;SDS011;1015;49.756;6.994;2022-12-18T02:28:44;2.80;;;1.80;;
2021;SDS011;1015;49.756;6.994;2022-12-18T02:31:13;3.60;;;2.83;;
2021;SDS011;1015;49.756;6.994;2022-12-18T02:33:41;3.37;;;2.50;;
2021;SDS011;1015;49.756;6.994;2022-12-18T02:36:09;3.73;;;2.60;;
2021;SDS011;1015;49.756;6.994;2022-12-18T02:38:37;2.20;;;1.70;;
2021;SDS011;1015;49.756;6.994;2022-12-18T02:41:05;7.33;;;4.77;;
2021;SDS011;1015;49.756;6.994;2022-12-18T02:43:34;3.70;;;2.97;;
2021;SDS011;1015;49.756;6.994;2022-12-18T02:48:43;2.90;;;2.23;;
2021;SDS011;1015;49.756;6.994;2022-12-18T02:51:13;3.40;;;2.80;;
2021;SDS011;1015;49.756;6.994;2022-12-18T02:53:45;5.10;;;3.27;;
2021;SDS011;1015;49.756;6.994;2022-12-18T02:56:17;5.60;;;4.13;;
2021;SDS011;1015;49.756;6.994;2022-12-18T02:58:47;4.37;;;2.90;;
2021;SDS011;1015;49.756;6.994;2022-12-18T03:01:19;4.07;;;2.50;;
2021;SDS011;1015;49.756;6.994;2022-12-18T03:03:50;4.60;;;2.57;;
2021;SDS011;1015;49.756;6.994;2022-12-18T03:06:20;3.50;;;2.60;;
2021;SDS011;1015;49.756;6.994;2022-12-18T03:08:51;3.37;;;2.40;;
2021;SDS011;1015;49.756;6.994;2022-12-18T03:11:20;4.40;;;3.17;;
2021;SDS011;1015;49.756;6.994;2022-12-18T03:14:09;3.17;;;2.50;;
2021;SDS011;1015;49.756;6.994;2022-12-18T03:16:38;4.47;;;2.90;;
2021;SDS011;1015;49.756;6.994;2022-12-18T03:19:08;5.00;;;2.93;;
2021;SDS011;1015;49.756;6.994;2022-12-18T03:21:39;4.70;;;3.40;;
2021;SDS011;1015;49.756;6.994;2022-12-18T03:24:07;4.70;;;2.80;;
2021;SDS011;1015;49.756;6.994;2022-12-18T03:26:36;3.70;;;3.27;;
2021;SDS011;1015;49.756;6.994;2022-12-18T03:29:05;5.13;;;3.73;;
2021;SDS011;1015;49.756;6.994;2022-12-18T03:31:36;6.30;;;3.77;;
2021;SDS011;1015;49.756;6.994;2022-12-18T03:34:05;6.47;;;3.63;;
2021;SDS011;1015;49.756;6.994;2022-12-18T03:36:35;4.70;;;3.03;;
2021;SDS011;1015;49.756;6.994;2022-12-18T03:39:03;5.17;;;3.80;;
2021;SDS011;1015;49.756;6.994;2022-12-18T03:41:31;4.57;;;4.00;;
2021;SDS011;1015;49.756;6.994;2022-12-18T03:44:00;6.43;;;3.70;;
2021;SDS011;1015;49.756;6.994;2022-12-18T03:46:30;11.97;;;6.30;;
2021;SDS011;1015;49.756;6.994;2022-12-18T03:49:02;6.33;;;4.00;;
2021;SDS011;1015;49.756;6.994;2022-12-18T03:51:33;7.20;;;4.20;;
2021;SDS011;1015;49.756;6.994;2022-12-18T03:54:02;6.80;;;4.03;;
2021;SDS011;1015;49.756;6.994;2022-12-18T03:56:31;4.80;;;3.37;;
2021;SDS011;1015;49.756;6.994;2022-12-18T03:58:59;5.77;;;3.70;;
2021;SDS011;1015;49.756;6.994;2022-12-18T04:01:28;7.50;;;4.40;;
2021;SDS011;1015;49.756;6.994;2022-12-18T04:03:57;5.20;;;3.60;;
2021;SDS011;1015;49.756;6.994;2022-12-18T04:06:27;9.73;;;5.33;;
2021;SDS011;1015;49.756;6.994;2022-12-18T04:08:54;7.00;;;4.10;;
2021;SDS011;1015;49.756;6.994;2022-12-18T04:11:23;8.00;;;5.40;;
2021;SDS011;1015;49.756;6.994;2022-12-18T04:13:50;7.20;;;4.87;;
2021;SDS011;1015;49.756;6.994;2022-12-18T04:16:17;9.93;;;6.53;;
2021;SDS011;1015;49.756;6.994;2022-12-18T04:18:44;10.40;;;6.23;;
2021;SDS011;1015;49.756;6.994;2022-12-18T04:21:12;8.27;;;4.30;;
2021;SDS011;1015;49.756;6.994;2022-12-18T04:23:40;9.73;;;5.73;;
2021;SDS011;1015;49.756;6.994;2022-12-18T04:26:07;8.30;;;4.80;;
2021;SDS011;1015;49.756;6.994;2022-12-18T04:28:35;9.87;;;6.07;;
2021;SDS011;1015;49.756;6.994;2022-12-18T04:31:02;15.17;;;10.00;;
2021;SDS011;1015;49.756;6.994;2022-12-18T04:33:29;10.40;;;6.20;;
2021;SDS011;1015;49.756;6.994;2022-12-18T04:35:57;8.60;;;6.03;;
2021;SDS011;1015;49.756;6.994;2022-12-18T04:38:24;9.20;;;5.57;;
2021;SDS011;1015;49.756;6.994;2022-12-18T04:40:52;23.43;;;12.80;;
2021;SDS011;1015;49.756;6.994;2022-12-18T04:43:20;8.00;;;5.50;;
2021;SDS011;1015;49.756;6.994;2022-12-18T04:45:47;9.87;;;5.37;;
2021;SDS011;1015;49.756;6.994;2022-12-18T04:48:14;11.80;;;7.87;;
2021;SDS011;1015;49.756;6.994;2022-12-18T04:50:41;8.43;;;4.97;;
2021;SDS011;1015;49.756;6.994;2022-12-18T04:53:09;11.30;;;6.33;;
2021;SDS011;1015;49.756;6.994;2022-12-18T04:55:36;9.30;;;5.80;;
2021;SDS011;1015;49.756;6.994;2022-12-18T04:58:05;14.37;;;7.17;;
2021;SDS011;1015;49.756;6.994;2022-12-18T05:00:32;8.63;;;5.03;;
2021;SDS011;1015;49.756;6.994;2022-12-18T05:03:00;6.73;;;4.60;;
2021;SDS011;1015;49.756;6.994;2022-12-18T05:05:27;7.70;;;4.87;;
2021;SDS011;1015;49.756;6.994;2022-12-18T05:07:55;7.70;;;5.30;;
2021;SDS011;1015;49.756;6.994;2022-12-18T05:10:22;6.07;;;4.40;;
2021;SDS011;1015;49.756;6.994;2022-12-18T05:12:49;5.60;;;4.10;;
2021;SDS011;1015;49.756;6.994;2022-12-18T05:15:28;8.70;;;5.50;;
2021;SDS011;1015;49.756;6.994;2022-12-18T05:17:55;7.40;;;4.90;;
2021;SDS011;1015;49.756;6.994;2022-12-18T05:20:22;7.07;;;4.30;;
2021;SDS011;1015;49.756;6.994;2022-12-18T05:22:50;6.50;;;4.80;;
2021;SDS011;1015;49.756;6.994;2022-12-18T05:25:17;6.73;;;4.47;;
2021;SDS011;1015;49.756;6.994;2022-12-18T05:27:44;7.57;;;5.13;;
2021;SDS011;1015;49.756;6.994;2022-12-18T05:30:12;7.10;;;4.50;;
2021;SDS011;1015;49.756;6.994;2022-12-18T05:32:41;8.40;;;5.90;;
2021;SDS011;1015;49.756;6.994;2022-12-18T05:35:09;8.00;;;5.73;;
2021;SDS011;1015;49.756;6.994;2022-12-18T05:37:37;10.33;;;7.00;;
2021;SDS011;1015;49.756;6.994;2022-12-18T05:40:05;9.17;;;6.27;;
2021;SDS011;1015;49.756;6.994;2022-12-18T05:42:32;11.67;;;6.33;;
2021;SDS011;1015;49.756;6.994;2022-12-18T05:44:59;8.73;;;5.50;;
2021;SDS011;1015;49.756;6.994;2022-12-18T05:47:26;8.17;;;5.10;;
2021;SDS011;1015;49.756;6.994;2022-12-18T05:49:56;6.77;;;4.70;;
2021;SDS011;1015;49.756;6.994;2022-12-18T05:52:23;11.50;;;5.33;;
2021;SDS011;1015;49.756;6.994;2022-12-18T05:54:50;9.73;;;5.00;;
2021;SDS011;1015;49.756;6.994;2022-12-18T05:57:18;7.33;;;5.07;;
2021;SDS011;1015;49.756;6.994;2022-12-18T05:59:45;8.33;;;5.03;;
2021;SDS011;1015;49.756;6.994;2022-12-18T06:02:12;9.77;;;6.20;;
2021;SDS011;1015;49.756;6.994;2022-12-18T06:04:39;9.13;;;5.40;;
2021;SDS011;1015;49.756;6.994;2022-12-18T06:07:08;8.43;;;5.73;;
2021;SDS011;1015;49.756;6.994;2022-12-18T06:09:35;7.50;;;5.43;;
2021;SDS011;1015;49.756;6.994;2022-12-18T06:12:02;8.07;;;5.23;;
2021;SDS011;1015;49.756;6.994;2022-12-18T06:14:30;10.03;;;6.23;;
2021;SDS011;1015;49.756;6.994;2022-12-18T06:16:57;11.87;;;6.87;;
2021;SDS011;1015;49.756;6.994;2022-12-18T06:19:24;9.80;;;6.43;;
2021;SDS011;1015;49.756;6.994;2022-12-18T06:21:51;10.60;;;6.00;;
2021;SDS011;1015;49.756;6.994;2022-12-18T06:24:20;8.33;;;6.13;;
2021;SDS011;1015;49.756;6.994;2022-12-18T06:26:48;10.50;;;6.30;;
2021;SDS011;1015;49.756;6.994;2022-12-18T06:29:15;10.33;;;6.20;;
2021;SDS011;1015;49.756;6.994;2022-12-18T06:31:43;13.93;;;6.30;;
2021;SDS011;1015;49.756;6.994;2022-12-18T06:34:10;9.50;;;5.80;;
2021;SDS011;1015;49.756;6.994;2022-12-18T06:36:39;12.30;;;6.70;;
2021;SDS011;1015;49.756;6.994;2022-12-18T06:39:06;8.00;;;6.13;;
2021;SDS011;1015;49.756;6.994;2022-12-18T06:41:34;7.90;;;5.43;;
2021;SDS011;1015;49.756;6.994;2022-12-18T06:44:02;10.37;;;6.23;;
2021;SDS011;1015;49.756;6.994;2022-12-18T06:46:29;9.40;;;6.00;;
2021;SDS011;1015;49.756;6.994;2022-12-18T06:48:57;10.13;;;6.27;;
2021;SDS011;1015;49.756;6.994;2022-12-18T06:51:24;11.67;;;6.80;;
2021;SDS011;1015;49.756;6.994;2022-12-18T06:53:51;11.83;;;6.13;;
2021;SDS011;1015;49.756;6.994;2022-12-18T06:56:19;12.90;;;5.60;;
2021;SDS011;1015;49.756;6.994;2022-12-18T06:58:47;10.53;;;6.60;;
2021;SDS011;1015;49.756;6.994;2022-12-18T07:01:14;11.17;;;7.00;;
2021;SDS011;1015;49.756;6.994;2022-12-18T07:03:42;14.80;;;6.70;;
2021;SDS011;1015;49.756;6.994;2022-12-18T07:06:13;10.87;;;6.13;;
2021;SDS011;1015;49.756;6.994;2022-12-18T07:08:41;10.50;;;6.17;;
2021;SDS011;1015;49.756;6.994;2022-12-18T07:11:08;9.97;;;6.47;;
2021;SDS011;1015;49.756;6.994;2022-12-18T07:13:35;11.70;;;6.10;;
2021;SDS011;1015;49.756;6.994;2022-12-18T07:16:05;11.57;;;6.90;;
2021;SDS011;1015;49.756;6.994;2022-12-18T07:18:32;11.20;;;6.23;;
2021;SDS011;1015;49.756;6.994;2022-12-18T07:21:02;12.23;;;7.27;;
2021;SDS011;1015;49.756;6.994;2022-12-18T07:23:29;13.30;;;6.80;;
2021;SDS011;1015;49.756;6.994;2022-12-18T07:26:02;12.47;;;6.50;;
2021;SDS011;1015;49.756;6.994;2022-12-18T07:28:30;11.87;;;6.37;;
2021;SDS011;1015;49.756;6.994;2022-12-18T07:30:58;10.93;;;6.10;;
2021;SDS011;1015;49.756;6.994;2022-12-18T07:33:26;9.63;;;6.20;;
2021;SDS011;1015;49.756;6.994;2022-12-18T07:35:53;11.10;;;6.27;;
2021;SDS011;1015;49.756;6.994;2022-12-18T07:38:21;11.50;;;6.87;;
2021;SDS011;1015;49.756;6.994;2022-12-18T07:40:48;11.60;;;6.40;;
2021;SDS011;1015;49.756;6.994;2022-12-18T07:43:16;11.23;;;6.77;;
2021;SDS011;1015;49.756;6.994;2022-12-18T07:45:43;12.97;;;7.10;;
2021;SDS011;1015;49.756;6.994;2022-12-18T07:48:10;12.77;;;7.43;;
2021;SDS011;1015;49.756;6.994;2022-12-18T07:50:39;15.13;;;7.60;;
2021;SDS011;1015;49.756;6.994;2022-12-18T07:53:06;14.50;;;9.17;;
2021;SDS011;1015;49.756;6.994;2022-12-18T07:55:34;15.60;;;9.03;;
2021;SDS011;1015;49.756;6.994;2022-12-18T07:58:01;15.77;;;8.90;;
2021;SDS011;1015;49.756;6.994;2022-12-18T08:00:28;19.40;;;11.53;;
2021;SDS011;1015;49.756;6.994;2022-12-18T08:02:56;18.17;;;11.60;;
2021;SDS011;1015;49.756;6.994;2022-12-18T08:05:23;19.10;;;12.10;;
2021;SDS011;1015;49.756;6.994;2022-12-18T08:07:52;22.90;;;11.90;;
2021;SDS011;1015;49.756;6.994;2022-12-18T08:10:19;17.20;;;10.73;;
2021;SDS011;1015;49.756;6.994;2022-12-18T08:12:48;18.83;;;10.50;;
2021;SDS011;1015;49.756;6.994;2022-12-18T08:15:16;15.77;;;9.90;;
2021;SDS011;1015;49.756;6.994;2022-12-18T08:17:43;14.30;;;10.00;;
2021;SDS011;1015;49.756;6.994;2022-12-18T08:20:11;17.97;;;9.63;;
2021;SDS011;1015;49.756;6.994;2022-12-18T08:22:39;15.93;;;9.90;;
2021;SDS011;1015;49.756;6.994;2022-12-18T08:25:08;16.70;;;9.03;;
2021;SDS011;1015;49.756;6.994;2022-12-18T08:27:36;13.80;;;8.97;;
2021;SDS011;1015;49.756;6.994;2022-12-18T08:30:03;18.20;;;8.80;;
2021;SDS011;1015;49.756;6.994;2022-12-18T08:32:31;13.87;;;8.80;;
2021;SDS011;1015;49.756;6.994;2022-12-18T08:34:59;14.93;;;9.03;;
2021;SDS011;1015;49.756;6.994;2022-12-18T08:37:26;13.03;;;8.43;;
2021;SDS011;1015;49.756;6.994;2022-12-18T08:39:53;14.10;;;9.20;;
2021;SDS011;1015;49.756;6.994;2022-12-18T08:42:22;15.20;;;8.70;;
2021;SDS011;1015;49.756;6.994;2022-12-18T08:45:07;17.87;;;8.80;;
2021;SDS011;1015;49.756;6.994;2022-12-18T08:47:34;15.33;;;9.53;;
2021;SDS011;1015;49.756;6.994;2022-12-18T08:50:02;15.10;;;9.27;;
2021;SDS011;1015;49.756;6.994;2022-12-18T08:52:31;16.20;;;9.37;;
2021;SDS011;1015;49.756;6.994;2022-12-18T08:54:58;16.67;;;10.37;;
2021;SDS011;1015;49.756;6.994;2022-12-18T08:57:27;15.33;;;8.80;;
2021;SDS011;1015;49.756;6.994;2022-12-18T08:59:54;15.97;;;10.47;;
2021;SDS011;1015;49.756;6.994;2022-12-18T09:02:21;15.60;;;8.83;;
2021;SDS011;1015;49.756;6.994;2022-12-18T09:04:48;13.90;;;9.80;;
2021;SDS011;1015;49.756;6.994;2022-12-18T09:07:16;28.20;;;17.70;;
2021;SDS011;1015;49.756;6.994;2022-12-18T09:09:43;22.80;;;11.13;;
2021;SDS011;1015;49.756;6.994;2022-12-18T09:12:10;18.83;;;10.53;;
2021;SDS011;1015;49.756;6.994;2022-12-18T09:14:39;18.90;;;10.10;;
2021;SDS011;1015;49.756;6.994;2022-12-18T09:17:06;15.43;;;9.37;;
2021;SDS011;1015;49.756;6.994;2022-12-18T09:19:34;14.30;;;9.07;;
2021;SDS011;1015;49.756;6.994;2022-12-18T09:22:01;13.67;;;9.10;;
2021;SDS011;1015;49.756;6.994;2022-12-18T09:24:28;19.37;;;9.73;;
2021;SDS011;1015;49.756;6.994;2022-12-18T09:26:56;17.07;;;10.80;;
2021;SDS011;1015;49.756;6.994;2022-12-18T09:29:23;16.70;;;10.57;;
2021;SDS011;1015;49.756;6.994;2022-12-18T09:31:51;17.47;;;10.47;;
2021;SDS011;1015;49.756;6.994;2022-12-18T09:34:19;17.70;;;10.07;;
2021;SDS011;1015;49.756;6.994;2022-12-18T09:36:46;16.37;;;9.60;;
2021;SDS011;1015;49.756;6.994;2022-12-18T09:39:14;15.63;;;10.30;;
2021;SDS011;1015;49.756;6.994;2022-12-18T09:41:43;15.50;;;10.17;;
2021;SDS011;1015;49.756;6.994;2022-12-18T09:44:13;18.57;;;9.90;;
2021;SDS011;1015;49.756;6.994;2022-12-18T09:46:43;13.37;;;8.90;;
2021;SDS011;1015;49.756;6.994;2022-12-18T09:49:13;15.47;;;9.90;;
2021;SDS011;1015;49.756;6.994;2022-12-18T09:51:42;16.90;;;10.00;;
2021;SDS011;1015;49.756;6.994;2022-12-18T09:54:12;15.57;;;9.10;;
2021;SDS011;1015;49.756;6.994;2022-12-18T09:56:41;15.77;;;9.40;;
2021;SDS011;1015;49.756;6.994;2022-12-18T09:59:14;14.40;;;9.60;;
2021;SDS011;1015;49.756;6.994;2022-12-18T10:01:42;14.13;;;9.20;;
2021;SDS011;1015;49.756;6.994;2022-12-18T10:04:10;15.47;;;8.97;;
2021;SDS011;1015;49.756;6.994;2022-12-18T10:06:39;16.57;;;9.70;;
2021;SDS011;1015;49.756;6.994;2022-12-18T10:09:09;13.90;;;8.87;;
2021;SDS011;1015;49.756;6.994;2022-12-18T10:11:43;14.20;;;9.70;;
2021;SDS011;1015;49.756;6.994;2022-12-18T10:14:16;15.87;;;10.07;;
2021;SDS011;1015;49.756;6.994;2022-12-18T10:16:48;15.50;;;9.50;;
2021;SDS011;1015;49.756;6.994;2022-12-18T10:19:22;14.37;;;8.60;;
2021;SDS011;1015;49.756;6.994;2022-12-18T10:21:55;14.20;;;9.23;;
2021;SDS011;1015;49.756;6.994;2022-12-18T10:24:27;16.23;;;9.37;;
2021;SDS011;1015;49.756;6.994;2022-12-18T10:26:59;13.93;;;9.53;;
2021;SDS011;1015;49.756;6.994;2022-12-18T10:29:33;15.33;;;9.63;;
2021;SDS011;1015;49.756;6.994;2022-12-18T10:32:01;18.10;;;10.70;;
2021;SDS011;1015;49.756;6.994;2022-12-18T10:34:28;16.37;;;10.47;;
2021;SDS011;1015;49.756;6.994;2022-12-18T10:36:57;15.67;;;10.80;;
2021;SDS011;1015;49.756;6.994;2022-12-18T10:39:24;14.47;;;8.57;;
2021;SDS011;1015;49.756;6.994;2022-12-18T10:41:51;14.63;;;9.90;;
2021;SDS011;1015;49.756;6.994;2022-12-18T10:44:19;13.57;;;9.57;;
2021;SDS011;1015;49.756;6.994;2022-12-18T10:46:47;15.30;;;9.93;;
2021;SDS011;1015;49.756;6.994;2022-12-18T10:49:18;16.73;;;10.63;;
2021;SDS011;1015;49.756;6.994;2022-12-18T10:51:46;19.17;;;10.13;;
2021;SDS011;1015;49.756;6.994;2022-12-18T10:54:15;15.60;;;9.80;;
2021;SDS011;1015;49.756;6.994;2022-12-18T10:56:43;14.50;;;8.50;;
2021;SDS011;1015;49.756;6.994;2022-12-18T10:59:11;14.37;;;8.67;;
2021;SDS011;1015;49.756;6.994;2022-12-18T11:01:45;12.53;;;8.40;;
2021;SDS011;1015;49.756;6.994;2022-12-18T11:04:16;12.80;;;7.50;;
2021;SDS011;1015;49.756;6.994;2022-12-18T11:06:52;12.60;;;7.50;;
2021;SDS011;1015;49.756;6.994;2022-12-18T11:09:21;13.43;;;7.40;;
2021;SDS011;1015;49.756;6.994;2022-12-18T11:11:49;12.90;;;7.90;;
2021;SDS011;1015;49.756;6.994;2022-12-18T11:14:20;11.17;;;7.67;;
2021;SDS011;1015;49.756;6.994;2022-12-18T11:16:48;10.93;;;7.40;;
2021;SDS011;1015;49.756;6.994;2022-12-18T11:19:21;12.40;;;6.77;;
2021;SDS011;1015;49.756;6.994;2022-12-18T11:21:49;12.50;;;8.30;;
2021;SDS011;1015;49.756;6.994;2022-12-18T11:24:22;10.87;;;7.90;;
2021;SDS011;1015;49.756;6.994;2022-12-18T11:26:53;11.10;;;8.30;;
2021;SDS011;1015;49.756;6.994;2022-12-18T11:29:22;11.93;;;8.07;;
2021;SDS011;1015;49.756;6.994;2022-12-18T11:31:50;14.23;;;9.07;;
2021;SDS011;1015;49.756;6.994;2022-12-18T11:34:19;13.23;;;8.57;;
2021;SDS011;1015;49.756;6.994;2022-12-18T11:36:48;11.53;;;7.97;;
2021;SDS011;1015;49.756;6.994;2022-12-18T11:39:17;12.43;;;8.30;;
2021;SDS011;1015;49.756;6.994;2022-12-18T11:41:49;12.70;;;9.00;;
2021;SDS011;1015;49.756;6.994;2022-12-18T11:44:38;14.43;;;8.90;;
2021;SDS011;1015;49.756;6.994;2022-12-18T11:47:09;13.13;;;8.80;;
2021;SDS011;1015;49.756;6.994;2022-12-18T11:49:39;13.07;;;8.40;;
2021;SDS011;1015;49.756;6.994;2022-12-18T11:52:09;16.00;;;9.53;;
2021;SDS011;1015;49.756;6.994;2022-12-18T11:54:37;14.70;;;9.20;;
2021;SDS011;1015;49.756;6.994;2022-12-18T11:57:07;17.97;;;9.53;;
2021;SDS011;1015;49.756;6.994;2022-12-18T11:59:37;13.17;;;9.33;;
2021;SDS011;1015;49.756;6.994;2022-12-18T12:02:17;15.53;;;9.20;;
2021;SDS011;1015;49.756;6.994;2022-12-18T12:04:48;16.27;;;9.97;;
2021;SDS011;1015;49.756;6.994;2022-12-18T12:07:20;14.33;;;10.23;;
2021;SDS011;1015;49.756;6.994;2022-12-18T12:09:49;14.87;;;10.30;;
2021;SDS011;1015;49.756;6.994;2022-12-18T12:12:26;14.83;;;9.40;;
2021;SDS011;1015;49.756;6.994;2022-12-18T12:14:58;14.60;;;10.50;;
2021;SDS011;1015;49.756;6.994;2022-12-18T12:17:30;13.50;;;9.10;;
2021;SDS011;1015;49.756;6.994;2022-12-18T12:20:01;15.17;;;10.70;;
2021;SDS011;1015;49.756;6.994;2022-12-18T12:22:30;14.90;;;10.70;;
2021;SDS011;1015;49.756;6.994;2022-12-18T12:25:04;15.07;;;11.27;;
2021;SDS011;1015;49.756;6.994;2022-12-18T12:27:38;15.93;;;10.70;;
2021;SDS011;1015;49.756;6.994;2022-12-18T12:30:08;19.00;;;10.40;;
2021;SDS011;1015;49.756;6.994;2022-12-18T12:32:43;15.23;;;9.30;;
2021;SDS011;1015;49.756;6.994;2022-12-18T12:35:15;15.77;;;10.23;;
2021;SDS011;1015;49.756;6.994;2022-12-18T12:37:51;17.47;;;11.07;;
2021;SDS011;1015;49.756;6.994;2022-12-18T12:40:22;14.40;;;9.80;;
2021;SDS011;1015;49.756;6.994;2022-12-18T12:42:52;15.83;;;10.33;;
2021;SDS011;1015;49.756;6.994;2022-12-18T12:45:40;18.10;;;11.23;;
2021;SDS011;1015;49.756;6.994;2022-12-18T12:48:11;19.00;;;11.30;;
2021;SDS011;1015;49.756;6.994;2022-12-18T12:50:40;18.30;;;11.30;;
2021;SDS011;1015;49.756;6.994;2022-12-18T12:53:09;16.67;;;11.70;;
2021;SDS011;1015;49.756;6.994;2022-12-18T12:55:41;12.10;;;9.03;;
2021;SDS011;1015;49.756;6.994;2022-12-18T12:58:13;12.83;;;8.00;;
2021;SDS011;1015;49.756;6.994;2022-12-18T13:00:44;11.10;;;7.83;;
2021;SDS011;1015;49.756;6.994;2022-12-18T13:03:15;11.10;;;6.90;;
2021;SDS011;1015;49.756;6.994;2022-12-18T13:05:45;10.40;;;7.50;;
2021;SDS011;1015;49.756;6.994;2022-12-18T13:08:21;11.77;;;7.70;;
2021;SDS011;1015;49.756;6.994;2022-12-18T13:10:49;11.40;;;8.23;;
2021;SDS011;1015;49.756;6.994;2022-12-18T13:13:47;11.80;;;6.93;;
2021;SDS011;1015;49.756;6.994;2022-12-18T13:16:13;9.50;;;7.50;;
2021;SDS011;1015;49.756;6.994;2022-12-18T13:18:48;11.77;;;8.63;;
2021;SDS011;1015;49.756;6.994;2022-12-18T13:21:18;11.47;;;8.40;;
2021;SDS011;1015;49.756;6.994;2022-12-18T13:23:48;13.40;;;8.93;;
2021;SDS011;1015;49.756;6.994;2022-12-18T13:26:28;11.30;;;8.37;;
2021;SDS011;1015;49.756;6.994;2022-12-18T13:28:58;14.67;;;9.87;;
2021;SDS011;1015;49.756;6.994;2022-12-18T13:34:16;12.87;;;7.17;;
2021;SDS011;1015;49.756;6.994;2022-12-18T13:36:43;11.97;;;7.20;;
2021;SDS011;1015;49.756;6.994;2022-12-18T13:39:15;9.40;;;6.77;;
2021;SDS011;1015;49.756;6.994;2022-12-18T13:41:48;11.30;;;7.70;;
2021;SDS011;1015;49.756;6.994;2022-12-18T13:44:22;10.97;;;8.03;;
2021;SDS011;1015;49.756;6.994;2022-12-18T13:46:51;11.97;;;7.20;;
2021;SDS011;1015;49.756;6.994;2022-12-18T13:49:20;9.33;;;7.00;;
2021;SDS011;1015;49.756;6.994;2022-12-18T13:51:49;9.93;;;6.77;;
2021;SDS011;1015;49.756;6.994;2022-12-18T13:54:18;10.20;;;7.30;;
2021;SDS011;1015;49.756;6.994;2022-12-18T13:56:46;11.03;;;8.00;;
2021;SDS011;1015;49.756;6.994;2022-12-18T13:59:15;14.80;;;8.57;;
2021;SDS011;1015;49.756;6.994;2022-12-18T14:01:45;12.57;;;7.73;;
2021;SDS011;1015;49.756;6.994;2022-12-18T14:04:17;13.47;;;8.53;;
2021;SDS011;1015;49.756;6.994;2022-12-18T14:06:45;13.33;;;8.10;;
2021;SDS011;1015;49.756;6.994;2022-12-18T14:09:13;12.80;;;8.17;;
2021;SDS011;1015;49.756;6.994;2022-12-18T14:11:45;13.70;;;8.80;;
2021;SDS011;1015;49.756;6.994;2022-12-18T14:14:13;12.10;;;8.33;;
2021;SDS011;1015;49.756;6.994;2022-12-18T14:16:40;15.23;;;8.87;;
2021;SDS011;1015;49.756;6.994;2022-12-18T14:19:09;13.37;;;8.77;;
2021;SDS011;1015;49.756;6.994;2022-12-18T14:21:39;11.40;;;8.20;;
2021;SDS011;1015;49.756;6.994;2022-12-18T14:24:11;13.20;;;7.97;;
2021;SDS011;1015;49.756;6.994;2022-12-18T14:26:39;10.87;;;7.77;;
2021;SDS011;1015;49.756;6.994;2022-12-18T14:29:22;12.57;;;7.90;;
2021;SDS011;1015;49.756;6.994;2022-12-18T14:34:49;12.00;;;7.70;;
2021;SDS011;1015;49.756;6.994;2022-12-18T14:37:18;10.63;;;8.00;;
2021;SDS011;1015;49.756;6.994;2022-12-18T14:39:56;10.70;;;8.27;;
2021;SDS011;1015;49.756;6.994;2022-12-18T14:42:24;13.90;;;7.97;;
2021;SDS011;1015;49.756;6.994;2022-12-18T14:47:35;13.67;;;8.93;;
2021;SDS011;1015;49.756;6.994;2022-12-18T14:50:04;11.80;;;8.60;;
2021;SDS011;1015;49.756;6.994;2022-12-18T14:52:38;13.43;;;8.77;;
2021;SDS011;1015;49.756;6.994;2022-12-18T14:55:13;16.03;;;9.17;;
2021;SDS011;1015;49.756;6.994;2022-12-18T14:57:41;13.60;;;9.00;;
2021;SDS011;1015;49.756;6.994;2022-12-18T15:00:11;13.83;;;8.67;;
2021;SDS011;1015;49.756;6.994;2022-12-18T15:02:42;14.03;;;9.27;;
2021;SDS011;1015;49.756;6.994;2022-12-18T15:05:17;15.53;;;10.50;;
2021;SDS011;1015;49.756;6.994;2022-12-18T15:07:45;14.93;;;9.20;;
2021;SDS011;1015;49.756;6.994;2022-12-18T15:10:14;16.30;;;10.33;;
2021;SDS011;1015;49.756;6.994;2022-12-18T15:12:42;19.83;;;11.50;;
2021;SDS011;1015;49.756;6.994;2022-12-18T15:18:01;13.00;;;9.80;;
2021;SDS011;1015;49.756;6.994;2022-12-18T15:20:38;16.33;;;10.03;;
2021;SDS011;1015;49.756;6.994;2022-12-18T15:23:12;16.33;;;9.80;;
2021;SDS011;1015;49.756;6.994;2022-12-18T15:25:39;15.13;;;9.73;;
2021;SDS011;1015;49.756;6.994;2022-12-18T15:28:15;17.63;;;9.97;;
2021;SDS011;1015;49.756;6.994;2022-12-18T15:30:57;17.77;;;10.57;;
2021;SDS011;1015;49.756;6.994;2022-12-18T15:33:25;16.40;;;10.50;;